sensor_id;sensor_type;location;lat;lon;timestamp;pressure;altitude;pressure_sealevel;temperature;humidity
43364;BME280;40636;52.424;-1.948;2022-12-29T00:00:54;97318.56;;;7.52;100.00
43364;BME280;40636;52.424;-1.948;2022-12-29T00:03:20;97320.16;;;7.53;100.00
43364;BME280;40636;52.424;-1.948;2022-12-29T00:05:54;97326.75;;;7.52;100.00
43364;BME280;40636;52.424;-1.948;2022-12-29T00:08:21;97326.44;;;7.54;100.00
43364;BME280;40636;52.424;-1.948;2022-12-29T00:11:16;97321.81;;;7.54;100.00
43364;BME280;40636;52.424;-1.948;2022-12-29T00:13:43;97314.13;;;7.56;100.00
43364;BME280;40636;52.424;-1.948;2022-12-29T00:16:30;97318.47;;;7.57;100.00
43364;BME280;40636;52.424;-1.948;2022-12-29T00:18:57;97326.66;;;7.57;100.00
43364;BME280;40636;52.424;-1.948;2022-12-29T00:21:25;97325.84;;;7.57;100.00
43364;BME280;40636;52.424;-1.948;2022-12-29T00:24:19;97314.72;;;7.53;100.00
43364;BME280;40636;52.424;-1.948;2022-12-29T00:27:12;97297.31;;;7.49;100.00
43364;BME280;40636;52.424;-1.948;2022-12-29T00:29:58;97292.00;;;7.39;100.00
43364;BME280;40636;52.424;-1.948;2022-12-29T00:32:43;97301.69;;;7.31;100.00
43364;BME280;40636;52.424;-1.948;2022-12-29T00:35:32;97300.03;;;7.30;100.00
43364;BME280;40636;52.424;-1.948;2022-12-29T00:38:05;97295.38;;;7.31;100.00
43364;BME280;40636;52.424;-1.948;2022-12-29T00:40:52;97287.75;;;7.33;100.00
43364;BME280;40636;52.424;-1.948;2022-12-29T00:43:37;97293.69;;;7.35;100.00
43364;BME280;40636;52.424;-1.948;2022-12-29T00:46:22;97296.34;;;7.40;100.00
43364;BME280;40636;52.424;-1.948;2022-12-29T00:48:49;97276.44;;;7.40;100.00
43364;BME280;40636;52.424;-1.948;2022-12-29T00:51:34;97278.91;;;7.41;100.00
43364;BME280;40636;52.424;-1.948;2022-12-29T00:54:01;97278.91;;;7.41;100.00
43364;BME280;40636;52.424;-1.948;2022-12-29T00:56:27;97275.88;;;7.43;100.00
43364;BME280;40636;52.424;-1.948;2022-12-29T00:58:54;97289.81;;;7.41;100.00
43364;BME280;40636;52.424;-1.948;2022-12-29T01:01:21;97268.56;;;7.38;100.00
43364;BME280;40636;52.424;-1.948;2022-12-29T01:03:47;97273.00;;;7.34;100.00
43364;BME280;40636;52.424;-1.948;2022-12-29T01:06:14;97286.13;;;7.32;100.00
43364;BME280;40636;52.424;-1.948;2022-12-29T01:08:41;97294.66;;;7.25;100.00
43364;BME280;40636;52.424;-1.948;2022-12-29T01:11:10;97288.63;;;7.28;100.00
43364;BME280;40636;52.424;-1.948;2022-12-29T01:13:38;97275.34;;;7.22;100.00
43364;BME280;40636;52.424;-1.948;2022-12-29T01:16:05;97278.06;;;7.22;100.00
43364;BME280;40636;52.424;-1.948;2022-12-29T01:18:33;97283.00;;;7.20;100.00
43364;BME280;40636;52.424;-1.948;2022-12-29T01:21:01;97271.81;;;7.21;100.00
43364;BME280;40636;52.424;-1.948;2022-12-29T01:23:29;97268.78;;;7.23;100.00
43364;BME280;40636;52.424;-1.948;2022-12-29T01:25:56;97261.69;;;7.22;100.00
43364;BME280;40636;52.424;-1.948;2022-12-29T01:28:23;97263.34;;;7.23;100.00
43364;BME280;40636;52.424;-1.948;2022-12-29T01:30:51;97260.09;;;7.21;100.00
43364;BME280;40636;52.424;-1.948;2022-12-29T01:33:18;97266.06;;;7.23;100.00
43364;BME280;40636;52.424;-1.948;2022-12-29T01:35:45;97273.13;;;7.24;100.00
43364;BME280;40636;52.424;-1.948;2022-12-29T01:38:11;97281.31;;;7.24;100.00
43364;BME280;40636;52.424;-1.948;2022-12-29T01:40:45;97278.03;;;7.27;100.00
43364;BME280;40636;52.424;-1.948;2022-12-29T01:43:13;97277.41;;;7.30;100.00
43364;BME280;40636;52.424;-1.948;2022-12-29T01:45:49;97275.50;;;7.30;100.00
43364;BME280;40636;52.424;-1.948;2022-12-29T01:48:17;97289.94;;;7.31;100.00
43364;BME280;40636;52.424;-1.948;2022-12-29T01:50:50;97279.03;;;7.31;100.00
43364;BME280;40636;52.424;-1.948;2022-12-29T01:53:26;97288.53;;;7.33;100.00
43364;BME280;40636;52.424;-1.948;2022-12-29T01:55:59;97281.25;;;7.29;100.00
43364;BME280;40636;52.424;-1.948;2022-12-29T01:58:29;97287.28;;;7.26;100.00
43364;BME280;40636;52.424;-1.948;2022-12-29T02:00:57;97293.03;;;7.24;100.00
43364;BME280;40636;52.424;-1.948;2022-12-29T02:03:25;97288.16;;;7.21;100.00
43364;BME280;40636;52.424;-1.948;2022-12-29T02:08:25;97291.19;;;7.20;100.00
43364;BME280;40636;52.424;-1.948;2022-12-29T02:10:53;97295.31;;;7.17;100.00
43364;BME280;40636;52.424;-1.948;2022-12-29T02:13:21;97295.84;;;7.19;100.00
43364;BME280;40636;52.424;-1.948;2022-12-29T02:18:57;97270.56;;;7.14;100.00
43364;BME280;40636;52.424;-1.948;2022-12-29T02:24:56;97262.38;;;7.14;100.00
43364;BME280;40636;52.424;-1.948;2022-12-29T02:27:48;97270.50;;;7.19;100.00
43364;BME280;40636;52.424;-1.948;2022-12-29T02:30:40;97272.19;;;7.15;100.00
43364;BME280;40636;52.424;-1.948;2022-12-29T02:33:36;97273.28;;;7.14;100.00
43364;BME280;40636;52.424;-1.948;2022-12-29T02:36:16;97281.47;;;7.14;100.00
43364;BME280;40636;52.424;-1.948;2022-12-29T02:44:15;97258.91;;;7.08;100.00
43364;BME280;40636;52.424;-1.948;2022-12-29T02:46:47;97269.00;;;7.07;100.00
43364;BME280;40636;52.424;-1.948;2022-12-29T02:49:22;97267.97;;;7.03;100.00
43364;BME280;40636;52.424;-1.948;2022-12-29T02:51:58;97260.88;;;7.02;100.00
43364;BME280;40636;52.424;-1.948;2022-12-29T02:54:27;97276.75;;;7.00;100.00
43364;BME280;40636;52.424;-1.948;2022-12-29T03:00:01;97285.66;;;7.06;100.00
43364;BME280;40636;52.424;-1.948;2022-12-29T03:02:30;97290.56;;;7.04;100.00
43364;BME280;40636;52.424;-1.948;2022-12-29T03:08:06;97314.25;;;7.08;100.00
43364;BME280;40636;52.424;-1.948;2022-12-29T03:13:45;97364.56;;;6.97;100.00
43364;BME280;40636;52.424;-1.948;2022-12-29T03:16:45;97379.69;;;6.84;100.00
43364;BME280;40636;52.424;-1.948;2022-12-29T03:19:25;97383.41;;;6.70;100.00
43364;BME280;40636;52.424;-1.948;2022-12-29T03:21:59;97390.59;;;6.60;100.00
43364;BME280;40636;52.424;-1.948;2022-12-29T03:24:49;97399.31;;;6.57;100.00
43364;BME280;40636;52.424;-1.948;2022-12-29T03:27:20;97412.56;;;6.40;100.00
43364;BME280;40636;52.424;-1.948;2022-12-29T03:29:53;97421.63;;;6.30;100.00
43364;BME280;40636;52.424;-1.948;2022-12-29T03:32:24;97426.88;;;6.22;100.00
43364;BME280;40636;52.424;-1.948;2022-12-29T03:34:53;97428.88;;;6.11;100.00
43364;BME280;40636;52.424;-1.948;2022-12-29T03:37:25;97443.31;;;6.06;100.00
43364;BME280;40636;52.424;-1.948;2022-12-29T03:39:52;97443.38;;;6.01;100.00
43364;BME280;40636;52.424;-1.948;2022-12-29T03:42:21;97446.66;;;5.98;100.00
43364;BME280;40636;52.424;-1.948;2022-12-29T03:44:54;97465.72;;;5.88;100.00
43364;BME280;40636;52.424;-1.948;2022-12-29T03:47:22;97470.09;;;5.84;100.00
43364;BME280;40636;52.424;-1.948;2022-12-29T03:49:50;97469.56;;;5.92;100.00
43364;BME280;40636;52.424;-1.948;2022-12-29T03:52:17;97483.44;;;5.91;100.00
43364;BME280;40636;52.424;-1.948;2022-12-29T03:54:44;97481.78;;;5.90;100.00
43364;BME280;40636;52.424;-1.948;2022-12-29T03:57:11;97482.59;;;5.90;100.00
43364;BME280;40636;52.424;-1.948;2022-12-29T03:59:38;97493.75;;;5.89;100.00
43364;BME280;40636;52.424;-1.948;2022-12-29T04:02:04;97500.59;;;5.81;100.00
43364;BME280;40636;52.424;-1.948;2022-12-29T04:04:31;97497.06;;;5.80;100.00
43364;BME280;40636;52.424;-1.948;2022-12-29T04:06:58;97506.06;;;5.76;100.00
43364;BME280;40636;52.424;-1.948;2022-12-29T04:09:24;97505.53;;;5.74;100.00
43364;BME280;40636;52.424;-1.948;2022-12-29T04:11:51;97521.31;;;5.72;100.00
43364;BME280;40636;52.424;-1.948;2022-12-29T04:14:18;97517.00;;;5.66;100.00
43364;BME280;40636;52.424;-1.948;2022-12-29T04:16:44;97520.53;;;5.66;100.00
43364;BME280;40636;52.424;-1.948;2022-12-29T04:19:12;97522.19;;;5.62;100.00
43364;BME280;40636;52.424;-1.948;2022-12-29T04:21:39;97532.78;;;5.58;100.00
43364;BME280;40636;52.424;-1.948;2022-12-29T04:24:06;97550.22;;;5.57;100.00
43364;BME280;40636;52.424;-1.948;2022-12-29T04:26:33;97550.50;;;5.61;100.00
43364;BME280;40636;52.424;-1.948;2022-12-29T04:28:59;97554.03;;;5.56;100.00
43364;BME280;40636;52.424;-1.948;2022-12-29T04:31:26;97555.94;;;5.56;100.00
43364;BME280;40636;52.424;-1.948;2022-12-29T04:33:53;97569.56;;;5.56;100.00
43364;BME280;40636;52.424;-1.948;2022-12-29T04:36:20;97582.31;;;5.60;100.00
43364;BME280;40636;52.424;-1.948;2022-12-29T04:38:54;97587.75;;;5.60;100.00
43364;BME280;40636;52.424;-1.948;2022-12-29T04:41:21;97594.31;;;5.59;100.00
43364;BME280;40636;52.424;-1.948;2022-12-29T04:43:48;97602.19;;;5.61;100.00
43364;BME280;40636;52.424;-1.948;2022-12-29T04:46:15;97609.25;;;5.62;100.00
43364;BME280;40636;52.424;-1.948;2022-12-29T04:48:43;97616.56;;;5.67;100.00
43364;BME280;40636;52.424;-1.948;2022-12-29T04:51:10;97618.78;;;5.65;100.00
43364;BME280;40636;52.424;-1.948;2022-12-29T04:53:37;97626.13;;;5.64;100.00
43364;BME280;40636;52.424;-1.948;2022-12-29T04:56:03;97637.25;;;5.68;100.00
43364;BME280;40636;52.424;-1.948;2022-12-29T04:58:30;97629.94;;;5.68;100.00
43364;BME280;40636;52.424;-1.948;2022-12-29T05:00:57;97632.34;;;5.70;100.00
43364;BME280;40636;52.424;-1.948;2022-12-29T05:03:23;97640.53;;;5.70;100.00
43364;BME280;40636;52.424;-1.948;2022-12-29T05:05:53;97642.44;;;5.69;100.00
43364;BME280;40636;52.424;-1.948;2022-12-29T05:08:21;97656.03;;;5.74;100.00
43364;BME280;40636;52.424;-1.948;2022-12-29T05:10:53;97663.09;;;5.75;100.00
43364;BME280;40636;52.424;-1.948;2022-12-29T05:13:20;97673.16;;;5.75;100.00
43364;BME280;40636;52.424;-1.948;2022-12-29T05:15:53;97669.91;;;5.78;100.00
43364;BME280;40636;52.424;-1.948;2022-12-29T05:18:20;97678.59;;;5.80;100.00
43364;BME280;40636;52.424;-1.948;2022-12-29T05:20:47;97672.59;;;5.83;100.00
43364;BME280;40636;52.424;-1.948;2022-12-29T05:23:14;97676.94;;;5.84;100.00
43364;BME280;40636;52.424;-1.948;2022-12-29T05:25:43;97687.84;;;5.79;100.00
43364;BME280;40636;52.424;-1.948;2022-12-29T05:28:12;97688.13;;;5.77;100.00
43364;BME280;40636;52.424;-1.948;2022-12-29T05:30:39;97704.19;;;5.79;100.00
43364;BME280;40636;52.424;-1.948;2022-12-29T05:33:06;97705.25;;;5.83;100.00
43364;BME280;40636;52.424;-1.948;2022-12-29T05:35:33;97708.78;;;5.89;100.00
43364;BME280;40636;52.424;-1.948;2022-12-29T05:38:00;97711.81;;;5.92;100.00
43364;BME280;40636;52.424;-1.948;2022-12-29T05:40:26;97710.16;;;5.91;100.00
43364;BME280;40636;52.424;-1.948;2022-12-29T05:42:53;97715.84;;;5.90;100.00
43364;BME280;40636;52.424;-1.948;2022-12-29T05:45:19;97718.88;;;5.88;100.00
43364;BME280;40636;52.424;-1.948;2022-12-29T05:47:46;97719.41;;;5.85;100.00
43364;BME280;40636;52.424;-1.948;2022-12-29T05:50:13;97728.69;;;5.79;100.00
43364;BME280;40636;52.424;-1.948;2022-12-29T05:52:40;97726.78;;;5.74;100.00
43364;BME280;40636;52.424;-1.948;2022-12-29T05:55:06;97731.94;;;5.71;100.00
43364;BME280;40636;52.424;-1.948;2022-12-29T05:57:33;97736.28;;;5.72;100.00
43364;BME280;40636;52.424;-1.948;2022-12-29T06:00:00;97738.75;;;5.68;100.00
43364;BME280;40636;52.424;-1.948;2022-12-29T06:02:27;97748.81;;;5.68;100.00
43364;BME280;40636;52.424;-1.948;2022-12-29T06:04:53;97758.63;;;5.64;100.00
43364;BME280;40636;52.424;-1.948;2022-12-29T06:07:20;97764.88;;;5.64;100.00
43364;BME280;40636;52.424;-1.948;2022-12-29T06:09:47;97775.47;;;5.60;100.00
43364;BME280;40636;52.424;-1.948;2022-12-29T06:12:13;97773.84;;;5.59;100.00
43364;BME280;40636;52.424;-1.948;2022-12-29T06:14:40;97779.03;;;5.56;100.00
43364;BME280;40636;52.424;-1.948;2022-12-29T06:17:07;97779.28;;;5.49;100.00
43364;BME280;40636;52.424;-1.948;2022-12-29T06:19:33;97782.28;;;5.48;100.00
43364;BME280;40636;52.424;-1.948;2022-12-29T06:22:00;97791.25;;;5.48;100.00
43364;BME280;40636;52.424;-1.948;2022-12-29T06:24:27;97799.41;;;5.48;100.00
43364;BME280;40636;52.424;-1.948;2022-12-29T06:26:53;97803.75;;;5.49;100.00
43364;BME280;40636;52.424;-1.948;2022-12-29T06:29:20;97809.75;;;5.51;100.00
43364;BME280;40636;52.424;-1.948;2022-12-29T06:31:47;97808.94;;;5.56;100.00
43364;BME280;40636;52.424;-1.948;2022-12-29T06:34:15;97809.75;;;5.62;100.00
43364;BME280;40636;52.424;-1.948;2022-12-29T06:36:42;97811.66;;;5.66;100.00
43364;BME280;40636;52.424;-1.948;2022-12-29T06:39:10;97826.09;;;5.72;100.00
43364;BME280;40636;52.424;-1.948;2022-12-29T06:41:36;97823.94;;;5.74;100.00
43364;BME280;40636;52.424;-1.948;2022-12-29T06:44:04;97822.56;;;5.71;100.00
43364;BME280;40636;52.424;-1.948;2022-12-29T06:46:31;97832.63;;;5.71;100.00
43364;BME280;40636;52.424;-1.948;2022-12-29T06:48:58;97838.59;;;5.63;100.00
43364;BME280;40636;52.424;-1.948;2022-12-29T06:51:24;97842.94;;;5.58;100.00
43364;BME280;40636;52.424;-1.948;2022-12-29T06:53:51;97847.03;;;5.61;100.00
43364;BME280;40636;52.424;-1.948;2022-12-29T06:56:18;97839.41;;;5.63;100.00
43364;BME280;40636;52.424;-1.948;2022-12-29T06:58:44;97854.66;;;5.64;100.00
43364;BME280;40636;52.424;-1.948;2022-12-29T07:01:11;97859.31;;;5.64;100.00
43364;BME280;40636;52.424;-1.948;2022-12-29T07:03:41;97866.09;;;5.66;100.00
43364;BME280;40636;52.424;-1.948;2022-12-29T07:06:09;97860.94;;;5.70;100.00
43364;BME280;40636;52.424;-1.948;2022-12-29T07:08:35;97876.44;;;5.69;100.00
43364;BME280;40636;52.424;-1.948;2022-12-29T07:11:02;97879.69;;;5.66;100.00
43364;BME280;40636;52.424;-1.948;2022-12-29T07:13:29;97885.94;;;5.67;100.00
43364;BME280;40636;52.424;-1.948;2022-12-29T07:15:55;97885.13;;;5.71;100.00
43364;BME280;40636;52.424;-1.948;2022-12-29T07:18:22;97892.50;;;5.76;100.00
43364;BME280;40636;52.424;-1.948;2022-12-29T07:20:49;97891.97;;;5.79;100.00
43364;BME280;40636;52.424;-1.948;2022-12-29T07:23:16;97891.44;;;5.82;100.00
43364;BME280;40636;52.424;-1.948;2022-12-29T07:25:42;97897.41;;;5.84;100.00
43364;BME280;40636;52.424;-1.948;2022-12-29T07:28:09;97897.94;;;5.81;100.00
43364;BME280;40636;52.424;-1.948;2022-12-29T07:30:36;97910.19;;;5.78;100.00
43364;BME280;40636;52.424;-1.948;2022-12-29T07:33:04;97912.09;;;5.78;100.00
43364;BME280;40636;52.424;-1.948;2022-12-29T07:35:30;97915.06;;;5.71;100.00
43364;BME280;40636;52.424;-1.948;2022-12-29T07:37:57;97921.91;;;5.74;100.00
43364;BME280;40636;52.424;-1.948;2022-12-29T07:40:23;97919.72;;;5.76;100.00
43364;BME280;40636;52.424;-1.948;2022-12-29T07:42:51;97919.19;;;5.79;100.00
43364;BME280;40636;52.424;-1.948;2022-12-29T07:45:17;97940.16;;;5.83;100.00
43364;BME280;40636;52.424;-1.948;2022-12-29T07:47:47;97936.09;;;5.86;100.00
43364;BME280;40636;52.424;-1.948;2022-12-29T07:50:14;97955.66;;;5.88;100.00
43364;BME280;40636;52.424;-1.948;2022-12-29T07:52:41;97956.47;;;5.89;100.00
43364;BME280;40636;52.424;-1.948;2022-12-29T07:55:08;97964.66;;;5.89;100.00
43364;BME280;40636;52.424;-1.948;2022-12-29T07:57:35;97965.78;;;5.93;100.00
43364;BME280;40636;52.424;-1.948;2022-12-29T08:00:03;97970.94;;;5.94;100.00
43364;BME280;40636;52.424;-1.948;2022-12-29T08:02:30;97975.31;;;5.95;100.00
43364;BME280;40636;52.424;-1.948;2022-12-29T08:04:56;97980.78;;;6.00;100.00
43364;BME280;40636;52.424;-1.948;2022-12-29T08:07:23;97977.78;;;6.02;100.00
43364;BME280;40636;52.424;-1.948;2022-12-29T08:09:50;97982.69;;;6.00;100.00
43364;BME280;40636;52.424;-1.948;2022-12-29T08:12:18;97984.56;;;5.99;100.00
43364;BME280;40636;52.424;-1.948;2022-12-29T08:14:45;97984.56;;;5.99;100.00
43364;BME280;40636;52.424;-1.948;2022-12-29T08:17:12;97980.22;;;6.03;100.00
43364;BME280;40636;52.424;-1.948;2022-12-29T08:19:38;97989.19;;;5.99;100.00
43364;BME280;40636;52.424;-1.948;2022-12-29T08:22:05;97991.09;;;5.98;100.00
43364;BME280;40636;52.424;-1.948;2022-12-29T08:24:32;97985.09;;;5.91;100.00
43364;BME280;40636;52.424;-1.948;2022-12-29T08:26:58;97989.16;;;5.89;100.00
43364;BME280;40636;52.424;-1.948;2022-12-29T08:29:37;98010.94;;;5.89;100.00
43364;BME280;40636;52.424;-1.948;2022-12-29T08:32:04;98015.56;;;5.88;100.00
43364;BME280;40636;52.424;-1.948;2022-12-29T08:34:32;98027.25;;;5.89;100.00
43364;BME280;40636;52.424;-1.948;2022-12-29T08:36:59;98030.31;;;5.92;100.00
43364;BME280;40636;52.424;-1.948;2022-12-29T08:39:26;98029.22;;;5.93;100.00
43364;BME280;40636;52.424;-1.948;2022-12-29T08:41:53;98039.56;;;5.96;100.00
43364;BME280;40636;52.424;-1.948;2022-12-29T08:44:21;98036.03;;;6.01;100.00
43364;BME280;40636;52.424;-1.948;2022-12-29T08:46:48;98044.22;;;6.06;100.00
43364;BME280;40636;52.424;-1.948;2022-12-29T08:49:14;98048.31;;;6.08;100.00
43364;BME280;40636;52.424;-1.948;2022-12-29T08:51:41;98049.69;;;6.11;100.00
43364;BME280;40636;52.424;-1.948;2022-12-29T08:54:08;98058.94;;;6.15;100.00
43364;BME280;40636;52.424;-1.948;2022-12-29T08:56:35;98047.25;;;6.15;100.00
43364;BME280;40636;52.424;-1.948;2022-12-29T08:59:02;98050.22;;;6.13;100.00
43364;BME280;40636;52.424;-1.948;2022-12-29T09:01:29;98059.78;;;6.16;100.00
43364;BME280;40636;52.424;-1.948;2022-12-29T09:03:57;98066.28;;;6.09;100.00
43364;BME280;40636;52.424;-1.948;2022-12-29T09:06:41;98070.38;;;6.12;100.00
43364;BME280;40636;52.424;-1.948;2022-12-29T09:09:08;98076.38;;;6.14;100.00
43364;BME280;40636;52.424;-1.948;2022-12-29T09:11:35;98080.47;;;6.17;100.00
43364;BME280;40636;52.424;-1.948;2022-12-29T09:14:02;98088.41;;;6.23;100.00
43364;BME280;40636;52.424;-1.948;2022-12-29T09:16:30;98095.75;;;6.28;100.00
43364;BME280;40636;52.424;-1.948;2022-12-29T09:18:56;98097.91;;;6.21;100.00
43364;BME280;40636;52.424;-1.948;2022-12-29T09:21:23;98091.34;;;6.06;100.00
43364;BME280;40636;52.424;-1.948;2022-12-29T09:23:50;98101.63;;;5.99;100.00
43364;BME280;40636;52.424;-1.948;2022-12-29T09:26:17;98097.75;;;5.90;100.00
43364;BME280;40636;52.424;-1.948;2022-12-29T09:28:43;98098.84;;;5.89;100.00
43364;BME280;40636;52.424;-1.948;2022-12-29T09:31:11;98109.44;;;5.85;100.00
43364;BME280;40636;52.424;-1.948;2022-12-29T09:33:38;98115.19;;;5.89;100.00
43364;BME280;40636;52.424;-1.948;2022-12-29T09:36:05;98112.16;;;5.85;100.00
43364;BME280;40636;52.424;-1.948;2022-12-29T09:38:32;98120.88;;;5.82;100.00
43364;BME280;40636;52.424;-1.948;2022-12-29T09:41:13;98133.94;;;5.85;100.00
43364;BME280;40636;52.424;-1.948;2022-12-29T09:46:28;98146.72;;;5.85;100.00
43364;BME280;40636;52.424;-1.948;2022-12-29T09:51:48;98141.91;;;5.92;100.00
43364;BME280;40636;52.424;-1.948;2022-12-29T09:57:14;98152.00;;;5.92;100.00
43364;BME280;40636;52.424;-1.948;2022-12-29T09:59:44;98158.78;;;5.94;100.00
43364;BME280;40636;52.424;-1.948;2022-12-29T10:04:55;98157.75;;;6.00;100.00
43364;BME280;40636;52.424;-1.948;2022-12-29T10:07:38;98157.47;;;6.02;100.00
43364;BME280;40636;52.424;-1.948;2022-12-29T10:10:20;98162.66;;;6.03;100.00
43364;BME280;40636;52.424;-1.948;2022-12-29T10:15:33;98165.16;;;6.10;100.00
43364;BME280;40636;52.424;-1.948;2022-12-29T10:18:24;98163.28;;;6.21;100.00
43364;BME280;40636;52.424;-1.948;2022-12-29T10:23:46;98165.78;;;6.32;100.00
43364;BME280;40636;52.424;-1.948;2022-12-29T10:26:18;98181.56;;;6.35;100.00
43364;BME280;40636;52.424;-1.948;2022-12-29T10:28:56;98179.97;;;6.40;100.00
43364;BME280;40636;52.424;-1.948;2022-12-29T10:31:38;98187.88;;;6.41;100.00
43364;BME280;40636;52.424;-1.948;2022-12-29T10:37:00;98190.34;;;6.48;100.00
43364;BME280;40636;52.424;-1.948;2022-12-29T10:39:33;98179.22;;;6.54;100.00
43364;BME280;40636;52.424;-1.948;2022-12-29T10:42:15;98181.94;;;6.54;100.00
43364;BME280;40636;52.424;-1.948;2022-12-29T10:44:46;98197.72;;;6.57;100.00
43364;BME280;40636;52.424;-1.948;2022-12-29T10:47:18;98184.13;;;6.63;100.00
43364;BME280;40636;52.424;-1.948;2022-12-29T10:49:48;98187.41;;;6.59;100.00
43364;BME280;40636;52.424;-1.948;2022-12-29T10:52:16;98196.69;;;6.64;100.00
43364;BME280;40636;52.424;-1.948;2022-12-29T10:55:17;98204.59;;;6.65;100.00
43364;BME280;40636;52.424;-1.948;2022-12-29T10:57:46;98205.69;;;6.64;100.00
43364;BME280;40636;52.424;-1.948;2022-12-29T11:08:14;98203.25;;;6.78;100.00
43364;BME280;40636;52.424;-1.948;2022-12-29T11:10:44;98208.44;;;6.79;100.00
43364;BME280;40636;52.424;-1.948;2022-12-29T11:13:26;98206.22;;;6.76;100.00
43364;BME280;40636;52.424;-1.948;2022-12-29T11:15:59;98207.91;;;6.77;100.00
43364;BME280;40636;52.424;-1.948;2022-12-29T11:18:33;98213.09;;;6.84;100.00
43364;BME280;40636;52.424;-1.948;2022-12-29T11:21:07;98197.28;;;6.91;100.00
43364;BME280;40636;52.424;-1.948;2022-12-29T11:24:02;98201.94;;;6.96;100.00
43364;BME280;40636;52.424;-1.948;2022-12-29T11:26:31;98200.84;;;6.97;100.00
43364;BME280;40636;52.424;-1.948;2022-12-29T11:32:04;98205.47;;;6.91;100.00
43364;BME280;40636;52.424;-1.948;2022-12-29T11:34:34;98202.75;;;6.86;100.00
43364;BME280;40636;52.424;-1.948;2022-12-29T11:37:10;98204.91;;;6.89;100.00
43364;BME280;40636;52.424;-1.948;2022-12-29T11:39:46;98212.00;;;6.90;100.00
43364;BME280;40636;52.424;-1.948;2022-12-29T11:42:17;98211.75;;;6.92;100.00
43364;BME280;40636;52.424;-1.948;2022-12-29T11:44:47;98204.66;;;6.91;100.00
43364;BME280;40636;52.424;-1.948;2022-12-29T11:47:31;98213.09;;;6.84;100.00
43364;BME280;40636;52.424;-1.948;2022-12-29T11:50:02;98215.28;;;6.82;100.00
43364;BME280;40636;52.424;-1.948;2022-12-29T11:52:33;98217.44;;;6.85;100.00
43364;BME280;40636;52.424;-1.948;2022-12-29T11:55:04;98207.91;;;6.88;100.00
43364;BME280;40636;52.424;-1.948;2022-12-29T11:57:33;98224.28;;;6.88;100.00
43364;BME280;40636;52.424;-1.948;2022-12-29T12:00:09;98218.81;;;6.88;100.00
43364;BME280;40636;52.424;-1.948;2022-12-29T12:03:03;98223.19;;;6.94;100.00
43364;BME280;40636;52.424;-1.948;2022-12-29T12:06:00;98220.75;;;7.02;100.00
43364;BME280;40636;52.424;-1.948;2022-12-29T12:08:39;98219.66;;;7.03;100.00
43364;BME280;40636;52.424;-1.948;2022-12-29T12:11:20;98209.84;;;7.12;100.00
43364;BME280;40636;52.424;-1.948;2022-12-29T12:13:58;98204.16;;;7.29;100.00
43364;BME280;40636;52.424;-1.948;2022-12-29T12:16:32;98206.06;;;7.39;100.00
43364;BME280;40636;52.424;-1.948;2022-12-29T12:19:09;98221.34;;;7.40;100.00
43364;BME280;40636;52.424;-1.948;2022-12-29T12:21:42;98211.78;;;7.43;100.00
43364;BME280;40636;52.424;-1.948;2022-12-29T12:24:39;98214.53;;;7.43;100.00
43364;BME280;40636;52.424;-1.948;2022-12-29T12:29:56;98225.16;;;7.39;100.00
43364;BME280;40636;52.424;-1.948;2022-12-29T12:44:01;98223.00;;;7.41;100.00
43364;BME280;40636;52.424;-1.948;2022-12-29T12:49:53;98216.97;;;7.44;100.00
43364;BME280;40636;52.424;-1.948;2022-12-29T12:57:32;98214.78;;;7.67;100.00
43364;BME280;40636;52.424;-1.948;2022-12-29T13:00:12;98217.78;;;7.70;100.00
43364;BME280;40636;52.424;-1.948;2022-12-29T13:11:02;98207.72;;;7.45;100.00
43364;BME280;40636;52.424;-1.948;2022-12-29T13:13:55;98226.25;;;7.48;100.00
43364;BME280;40636;52.424;-1.948;2022-12-29T13:16:41;98206.06;;;7.44;100.00
43364;BME280;40636;52.424;-1.948;2022-12-29T13:22:32;98206.34;;;7.32;100.00
43364;BME280;40636;52.424;-1.948;2022-12-29T13:27:54;98223.25;;;7.45;100.00
43364;BME280;40636;52.424;-1.948;2022-12-29T13:30:30;98234.72;;;7.52;100.00
43364;BME280;40636;52.424;-1.948;2022-12-29T13:36:37;98234.19;;;7.65;100.00
43364;BME280;40636;52.424;-1.948;2022-12-29T13:39:19;98238.81;;;7.65;100.00
43364;BME280;40636;52.424;-1.948;2022-12-29T13:41:53;98236.91;;;7.50;100.00
43364;BME280;40636;52.424;-1.948;2022-12-29T13:44:25;98243.97;;;7.35;100.00
43364;BME280;40636;52.424;-1.948;2022-12-29T13:47:06;98253.53;;;7.28;100.00
43364;BME280;40636;52.424;-1.948;2022-12-29T13:49:39;98260.06;;;7.17;100.00
43364;BME280;40636;52.424;-1.948;2022-12-29T13:52:21;98274.22;;;7.08;100.00
43364;BME280;40636;52.424;-1.948;2022-12-29T13:58:04;98280.41;;;6.73;100.00
43364;BME280;40636;52.424;-1.948;2022-12-29T14:03:49;98275.31;;;6.40;100.00
43364;BME280;40636;52.424;-1.948;2022-12-29T14:06:24;98272.03;;;6.38;100.00
43364;BME280;40636;52.424;-1.948;2022-12-29T14:09:03;98276.13;;;6.40;100.00
43364;BME280;40636;52.424;-1.948;2022-12-29T14:11:48;98263.28;;;6.30;100.00
43364;BME280;40636;52.424;-1.948;2022-12-29T14:14:21;98285.88;;;6.26;100.00
43364;BME280;40636;52.424;-1.948;2022-12-29T14:16:49;98292.44;;;6.30;100.00
43364;BME280;40636;52.424;-1.948;2022-12-29T14:19:17;98296.75;;;6.26;100.00
43364;BME280;40636;52.424;-1.948;2022-12-29T14:21:57;98286.69;;;6.26;100.00
43364;BME280;40636;52.424;-1.948;2022-12-29T14:34:48;98307.84;;;6.09;100.00
43364;BME280;40636;52.424;-1.948;2022-12-29T14:37:31;98318.97;;;6.07;100.00
43364;BME280;40636;52.424;-1.948;2022-12-29T14:40:18;98308.31;;;6.01;100.00
43364;BME280;40636;52.424;-1.948;2022-12-29T14:42:46;98315.09;;;5.98;100.00
43364;BME280;40636;52.424;-1.948;2022-12-29T14:47:47;98338.97;;;5.91;100.00
43364;BME280;40636;52.424;-1.948;2022-12-29T14:52:51;98348.81;;;5.92;100.00
43364;BME280;40636;52.424;-1.948;2022-12-29T14:55:47;98340.88;;;5.91;100.00
43364;BME280;40636;52.424;-1.948;2022-12-29T14:58:21;98346.63;;;5.94;100.00
43364;BME280;40636;52.424;-1.948;2022-12-29T15:00:48;98353.09;;;5.88;100.00
43364;BME280;40636;52.424;-1.948;2022-12-29T15:03:34;98349.63;;;5.93;100.00
43364;BME280;40636;52.424;-1.948;2022-12-29T15:06:08;98345.81;;;5.94;100.00
43364;BME280;40636;52.424;-1.948;2022-12-29T15:08:48;98349.84;;;5.86;100.00